sensor_id;sensor_type;location;lat;lon;timestamp;pressure;altitude;pressure_sealevel;temperature;humidity
11036;BME280;5571;48.110;-1.706;2022-09-24T00:01:52;100987.44;;;15.35;100.00
11036;BME280;5571;48.110;-1.706;2022-09-24T00:04:18;100977.69;;;15.35;100.00
11036;BME280;5571;48.110;-1.706;2022-09-24T00:06:45;100979.50;;;15.35;100.00
11036;BME280;5571;48.110;-1.706;2022-09-24T00:09:13;100974.38;;;15.32;100.00
11036;BME280;5571;48.110;-1.706;2022-09-24T00:11:40;100980.75;;;15.29;100.00
11036;BME280;5571;48.110;-1.706;2022-09-24T00:14:07;100978.19;;;15.28;100.00
11036;BME280;5571;48.110;-1.706;2022-09-24T00:16:33;100979.28;;;15.25;100.00
11036;BME280;5571;48.110;-1.706;2022-09-24T00:19:00;100978.44;;;15.24;100.00
11036;BME280;5571;48.110;-1.706;2022-09-24T00:21:29;100988.06;;;15.26;100.00
11036;BME280;5571;48.110;-1.706;2022-09-24T00:23:57;100975.78;;;15.24;100.00
11036;BME280;5571;48.110;-1.706;2022-09-24T00:26:24;100981.06;;;15.24;100.00
11036;BME280;5571;48.110;-1.706;2022-09-24T00:29:10;100980.97;;;15.26;100.00
11036;BME280;5571;48.110;-1.706;2022-09-24T00:31:36;100987.94;;;15.27;100.00
11036;BME280;5571;48.110;-1.706;2022-09-24T00:34:02;100986.06;;;15.29;100.00
11036;BME280;5571;48.110;-1.706;2022-09-24T00:36:27;100985.84;;;15.32;100.00
11036;BME280;5571;48.110;-1.706;2022-09-24T00:38:55;100990.19;;;15.33;100.00
11036;BME280;5571;48.110;-1.706;2022-09-24T00:41:24;100987.53;;;15.33;100.00
11036;BME280;5571;48.110;-1.706;2022-09-24T00:43:50;100988.38;;;15.34;100.00
11036;BME280;5571;48.110;-1.706;2022-09-24T00:46:37;100986.47;;;15.36;100.00
11036;BME280;5571;48.110;-1.706;2022-09-24T00:49:10;100992.59;;;15.36;100.00
11036;BME280;5571;48.110;-1.706;2022-09-24T00:51:37;100993.34;;;15.38;100.00
11036;BME280;5571;48.110;-1.706;2022-09-24T00:54:07;101003.94;;;15.38;100.00
11036;BME280;5571;48.110;-1.706;2022-09-24T00:56:35;101002.16;;;15.39;100.00
11036;BME280;5571;48.110;-1.706;2022-09-24T00:59:03;101003.19;;;15.36;100.00
11036;BME280;5571;48.110;-1.706;2022-09-24T01:01:31;101008.41;;;15.38;100.00
11036;BME280;5571;48.110;-1.706;2022-09-24T01:03:58;101010.41;;;15.34;100.00
11036;BME280;5571;48.110;-1.706;2022-09-24T01:06:25;101011.38;;;15.33;100.00
11036;BME280;5571;48.110;-1.706;2022-09-24T01:08:52;101012.31;;;15.32;100.00
11036;BME280;5571;48.110;-1.706;2022-09-24T01:16:46;100998.03;;;15.35;100.00
11036;BME280;5571;48.110;-1.706;2022-09-24T01:19:38;100999.81;;;15.34;100.00
11036;BME280;5571;48.110;-1.706;2022-09-24T01:22:25;101000.69;;;15.35;100.00
11036;BME280;5571;48.110;-1.706;2022-09-24T01:30:21;100989.09;;;15.36;100.00
11036;BME280;5571;48.110;-1.706;2022-09-24T01:33:00;100984.66;;;15.36;100.00
11036;BME280;5571;48.110;-1.706;2022-09-24T01:35:38;100993.59;;;15.35;100.00
11036;BME280;5571;48.110;-1.706;2022-09-24T01:38:10;100985.09;;;15.30;100.00
11036;BME280;5571;48.110;-1.706;2022-09-24T01:40:38;100986.28;;;15.26;100.00
11036;BME280;5571;48.110;-1.706;2022-09-24T01:43:05;100980.22;;;15.24;100.00
11036;BME280;5571;48.110;-1.706;2022-09-24T01:45:32;100981.28;;;15.21;100.00
11036;BME280;5571;48.110;-1.706;2022-09-24T01:47:59;100984.03;;;15.20;100.00
11036;BME280;5571;48.110;-1.706;2022-09-24T01:50:28;100981.50;;;15.18;100.00
11036;BME280;5571;48.110;-1.706;2022-09-24T01:53:20;100981.63;;;15.17;100.00
11036;BME280;5571;48.110;-1.706;2022-09-24T01:55:50;100978.22;;;15.15;100.00
11036;BME280;5571;48.110;-1.706;2022-09-24T01:58:24;100976.50;;;15.14;100.00
11036;BME280;5571;48.110;-1.706;2022-09-24T02:00:57;100973.00;;;15.13;100.00
11036;BME280;5571;48.110;-1.706;2022-09-24T02:03:30;100969.53;;;15.13;100.00
11036;BME280;5571;48.110;-1.706;2022-09-24T02:06:04;100968.88;;;15.09;100.00
11036;BME280;5571;48.110;-1.706;2022-09-24T02:08:38;100975.25;;;15.07;100.00
11036;BME280;5571;48.110;-1.706;2022-09-24T02:11:11;100967.53;;;15.04;100.00
11036;BME280;5571;48.110;-1.706;2022-09-24T02:13:53;100967.84;;;14.99;100.00
11036;BME280;5571;48.110;-1.706;2022-09-24T02:16:24;100964.34;;;14.99;100.00
11036;BME280;5571;48.110;-1.706;2022-09-24T02:18:53;100967.09;;;14.97;100.00
11036;BME280;5571;48.110;-1.706;2022-09-24T02:21:22;100966.06;;;15.00;100.00
11036;BME280;5571;48.110;-1.706;2022-09-24T02:23:53;100962.25;;;15.04;100.00
11036;BME280;5571;48.110;-1.706;2022-09-24T02:26:21;100962.88;;;15.07;100.00
11036;BME280;5571;48.110;-1.706;2022-09-24T02:28:47;100963.50;;;15.11;100.00
11036;BME280;5571;48.110;-1.706;2022-09-24T02:31:24;100955.47;;;15.12;100.00
11036;BME280;5571;48.110;-1.706;2022-09-24T02:33:51;100963.28;;;15.14;100.00
11036;BME280;5571;48.110;-1.706;2022-09-24T02:36:37;100949.94;;;15.15;100.00
11036;BME280;5571;48.110;-1.706;2022-09-24T02:39:03;100953.34;;;15.17;100.00
11036;BME280;5571;48.110;-1.706;2022-09-24T02:41:30;100962.97;;;15.18;100.00
11036;BME280;5571;48.110;-1.706;2022-09-24T02:43:56;100949.63;;;15.20;100.00
11036;BME280;5571;48.110;-1.706;2022-09-24T02:46:22;100950.47;;;15.20;100.00
11036;BME280;5571;48.110;-1.706;2022-09-24T02:48:48;100946.13;;;15.19;100.00
11036;BME280;5571;48.110;-1.706;2022-09-24T02:51:14;100940.94;;;15.18;100.00
11036;BME280;5571;48.110;-1.706;2022-09-24T02:53:39;100940.84;;;15.19;100.00
11036;BME280;5571;48.110;-1.706;2022-09-24T02:56:04;100935.53;;;15.19;100.00
11036;BME280;5571;48.110;-1.706;2022-09-24T02:58:30;100935.53;;;15.19;100.00
11036;BME280;5571;48.110;-1.706;2022-09-24T03:00:56;100934.81;;;15.17;100.00
11036;BME280;5571;48.110;-1.706;2022-09-24T03:03:25;100925.19;;;15.16;100.00
11036;BME280;5571;48.110;-1.706;2022-09-24T03:05:51;100937.56;;;15.16;100.00
11036;BME280;5571;48.110;-1.706;2022-09-24T03:08:19;100931.50;;;15.14;100.00
11036;BME280;5571;48.110;-1.706;2022-09-24T03:10:45;100935.97;;;15.13;100.00
11036;BME280;5571;48.110;-1.706;2022-09-24T03:13:11;100935.13;;;15.13;100.00
11036;BME280;5571;48.110;-1.706;2022-09-24T03:15:36;100930.78;;;15.12;100.00
11036;BME280;5571;48.110;-1.706;2022-09-24T03:18:02;100935.13;;;15.13;100.00
11036;BME280;5571;48.110;-1.706;2022-09-24T03:20:28;100929.84;;;15.13;100.00
11036;BME280;5571;48.110;-1.706;2022-09-24T03:22:53;100924.66;;;15.11;100.00
11036;BME280;5571;48.110;-1.706;2022-09-24T03:25:19;100929.84;;;15.13;100.00
11036;BME280;5571;48.110;-1.706;2022-09-24T03:27:45;100930.56;;;15.15;100.00
11036;BME280;5571;48.110;-1.706;2022-09-24T03:30:10;100928.69;;;15.17;100.00
11036;BME280;5571;48.110;-1.706;2022-09-24T03:32:55;100937.66;;;15.14;100.00
11036;BME280;5571;48.110;-1.706;2022-09-24T03:35:20;100934.38;;;15.11;100.00
11036;BME280;5571;48.110;-1.706;2022-09-24T03:37:45;100936.28;;;15.09;100.00
11036;BME280;5571;48.110;-1.706;2022-09-24T03:40:11;100934.69;;;15.06;100.00
11036;BME280;5571;48.110;-1.706;2022-09-24T03:42:36;100931.97;;;15.08;100.00
11036;BME280;5571;48.110;-1.706;2022-09-24T03:45:03;100937.25;;;15.08;100.00
11036;BME280;5571;48.110;-1.706;2022-09-24T03:47:28;100928.25;;;15.10;100.00
11036;BME280;5571;48.110;-1.706;2022-09-24T03:49:55;100929.09;;;15.11;100.00
11036;BME280;5571;48.110;-1.706;2022-09-24T03:52:20;100924.88;;;15.08;100.00
11036;BME280;5571;48.110;-1.706;2022-09-24T03:54:45;100925.91;;;15.06;100.00
11036;BME280;5571;48.110;-1.706;2022-09-24T03:57:11;100924.22;;;15.05;100.00
11036;BME280;5571;48.110;-1.706;2022-09-24T03:59:39;100918.91;;;15.05;100.00
11036;BME280;5571;48.110;-1.706;2022-09-24T04:02:05;100908.31;;;15.05;100.00
11036;BME280;5571;48.110;-1.706;2022-09-24T04:04:30;100922.53;;;15.04;100.00
11036;BME280;5571;48.110;-1.706;2022-09-24T04:06:56;100917.44;;;15.01;100.00
11036;BME280;5571;48.110;-1.706;2022-09-24T04:09:21;100920.09;;;15.01;100.00
11036;BME280;5571;48.110;-1.706;2022-09-24T04:11:46;100920.09;;;15.01;100.00
11036;BME280;5571;48.110;-1.706;2022-09-24T04:14:12;100930.78;;;14.99;100.00
11036;BME280;5571;48.110;-1.706;2022-09-24T04:16:37;100927.31;;;14.99;100.00
11036;BME280;5571;48.110;-1.706;2022-09-24T04:19:03;100932.59;;;14.99;100.00
11036;BME280;5571;48.110;-1.706;2022-09-24T04:21:28;100921.06;;;15.00;100.00
11036;BME280;5571;48.110;-1.706;2022-09-24T04:23:54;100932.59;;;14.99;100.00
11036;BME280;5571;48.110;-1.706;2022-09-24T04:26:19;100936.81;;;15.01;100.00
11036;BME280;5571;48.110;-1.706;2022-09-24T04:28:45;100942.22;;;15.00;100.00
11036;BME280;5571;48.110;-1.706;2022-09-24T04:31:10;100938.91;;;14.96;100.00
11036;BME280;5571;48.110;-1.706;2022-09-24T04:33:35;100933.75;;;14.95;100.00
11036;BME280;5571;48.110;-1.706;2022-09-24T04:36:01;100924.03;;;14.95;100.00
11036;BME280;5571;48.110;-1.706;2022-09-24T04:38:26;100927.50;;;14.96;100.00
11036;BME280;5571;48.110;-1.706;2022-09-24T04:40:51;100920.41;;;14.96;100.00
11036;BME280;5571;48.110;-1.706;2022-09-24T04:43:17;100922.09;;;14.97;100.00
11036;BME280;5571;48.110;-1.706;2022-09-24T04:45:43;100928.25;;;14.98;100.00
11036;BME280;5571;48.110;-1.706;2022-09-24T04:48:09;100919.47;;;14.97;100.00
11036;BME280;5571;48.110;-1.706;2022-09-24T04:50:35;100926.66;;;14.95;100.00
11036;BME280;5571;48.110;-1.706;2022-09-24T04:53:02;100925.69;;;14.96;100.00
11036;BME280;5571;48.110;-1.706;2022-09-24T04:55:28;100933.75;;;14.95;100.00
11036;BME280;5571;48.110;-1.706;2022-09-24T04:57:57;100932.06;;;14.94;100.00
11036;BME280;5571;48.110;-1.706;2022-09-24T05:00:23;100942.63;;;14.94;100.00
11036;BME280;5571;48.110;-1.706;2022-09-24T05:02:55;100939.91;;;14.95;100.00
11036;BME280;5571;48.110;-1.706;2022-09-24T05:05:22;100935.44;;;14.96;100.00
11036;BME280;5571;48.110;-1.706;2022-09-24T05:07:47;100958.28;;;14.97;100.00
11036;BME280;5571;48.110;-1.706;2022-09-24T05:10:13;100946.22;;;14.93;100.00
11036;BME280;5571;48.110;-1.706;2022-09-24T05:12:39;100952.59;;;14.90;100.00
11036;BME280;5571;48.110;-1.706;2022-09-24T05:15:05;100947.41;;;14.89;100.00
11036;BME280;5571;48.110;-1.706;2022-09-24T05:17:31;100945.81;;;14.86;100.00
11036;BME280;5571;48.110;-1.706;2022-09-24T05:19:56;100945.16;;;14.83;100.00
11036;BME280;5571;48.110;-1.706;2022-09-24T05:22:24;100946.00;;;14.83;100.00
11036;BME280;5571;48.110;-1.706;2022-09-24T05:24:51;100946.84;;;14.84;100.00
11036;BME280;5571;48.110;-1.706;2022-09-24T05:27:17;100947.63;;;14.86;100.00
11036;BME280;5571;48.110;-1.706;2022-09-24T05:29:44;100955.34;;;14.89;100.00
11036;BME280;5571;48.110;-1.706;2022-09-24T05:32:12;100971.13;;;14.90;100.00
11036;BME280;5571;48.110;-1.706;2022-09-24T05:34:39;100972.69;;;14.93;100.00
11036;BME280;5571;48.110;-1.706;2022-09-24T05:37:06;100982.13;;;14.97;100.00
11036;BME280;5571;48.110;-1.706;2022-09-24T05:39:32;100972.06;;;15.02;100.00
11036;BME280;5571;48.110;-1.706;2022-09-24T05:41:57;100983.19;;;15.07;100.00
11036;BME280;5571;48.110;-1.706;2022-09-24T05:44:23;100983.91;;;15.09;100.00
11036;BME280;5571;48.110;-1.706;2022-09-24T05:46:49;100991.75;;;15.10;100.00
11036;BME280;5571;48.110;-1.706;2022-09-24T05:49:15;100989.97;;;15.11;100.00
11036;BME280;5571;48.110;-1.706;2022-09-24T05:51:40;100995.16;;;15.12;100.00
11036;BME280;5571;48.110;-1.706;2022-09-24T05:54:06;100998.53;;;15.14;100.00
11036;BME280;5571;48.110;-1.706;2022-09-24T05:56:31;100994.94;;;15.15;100.00
11036;BME280;5571;48.110;-1.706;2022-09-24T05:58:57;101003.66;;;15.17;100.00
11036;BME280;5571;48.110;-1.706;2022-09-24T06:01:22;101000.88;;;15.19;100.00
11036;BME280;5571;48.110;-1.706;2022-09-24T06:03:49;101015.81;;;15.20;100.00
11036;BME280;5571;48.110;-1.706;2022-09-24T06:06:14;101016.56;;;15.22;100.00
11036;BME280;5571;48.110;-1.706;2022-09-24T06:08:40;101013.78;;;15.23;100.00
11036;BME280;5571;48.110;-1.706;2022-09-24T06:11:06;101012.94;;;15.23;100.00
11036;BME280;5571;48.110;-1.706;2022-09-24T06:13:33;101014.75;;;15.22;100.00
11036;BME280;5571;48.110;-1.706;2022-09-24T06:16:09;101019.22;;;15.22;100.00
11036;BME280;5571;48.110;-1.706;2022-09-24T06:18:37;101025.44;;;15.21;100.00
11036;BME280;5571;48.110;-1.706;2022-09-24T06:21:14;101019.41;;;15.19;100.00
11036;BME280;5571;48.110;-1.706;2022-09-24T06:23:42;101030.13;;;15.17;100.00
11036;BME280;5571;48.110;-1.706;2022-09-24T06:26:11;101027.47;;;15.17;100.00
11036;BME280;5571;48.110;-1.706;2022-09-24T06:28:37;101034.56;;;15.17;100.00
11036;BME280;5571;48.110;-1.706;2022-09-24T06:31:02;101044.28;;;15.16;100.00
11036;BME280;5571;48.110;-1.706;2022-09-24T06:33:28;101035.50;;;15.16;100.00
11036;BME280;5571;48.110;-1.706;2022-09-24T06:35:58;101041.00;;;15.13;100.00
11036;BME280;5571;48.110;-1.706;2022-09-24T06:38:23;101042.81;;;15.12;100.00
11036;BME280;5571;48.110;-1.706;2022-09-24T06:40:49;101045.34;;;15.14;100.00
11036;BME280;5571;48.110;-1.706;2022-09-24T06:43:14;101041.00;;;15.13;100.00
11036;BME280;5571;48.110;-1.706;2022-09-24T06:45:42;101046.19;;;15.14;100.00
11036;BME280;5571;48.110;-1.706;2022-09-24T06:48:09;101039.09;;;15.15;100.00
11036;BME280;5571;48.110;-1.706;2022-09-24T06:50:38;101042.59;;;15.15;100.00
11036;BME280;5571;48.110;-1.706;2022-09-24T06:53:04;101043.44;;;15.16;100.00
11036;BME280;5571;48.110;-1.706;2022-09-24T06:55:30;101047.03;;;15.15;100.00
11036;BME280;5571;48.110;-1.706;2022-09-24T06:58:09;101054.03;;;15.16;100.00
11036;BME280;5571;48.110;-1.706;2022-09-24T07:00:36;101050.44;;;15.17;100.00
11036;BME280;5571;48.110;-1.706;2022-09-24T07:03:03;101039.94;;;15.15;100.00
11036;BME280;5571;48.110;-1.706;2022-09-24T07:05:29;101045.16;;;15.17;100.00
11036;BME280;5571;48.110;-1.706;2022-09-24T07:07:54;101040.69;;;15.17;100.00
11036;BME280;5571;48.110;-1.706;2022-09-24T07:10:20;101048.53;;;15.19;100.00
11036;BME280;5571;48.110;-1.706;2022-09-24T07:12:45;101050.84;;;15.23;100.00
11036;BME280;5571;48.110;-1.706;2022-09-24T07:15:11;101048.97;;;15.26;100.00
11036;BME280;5571;48.110;-1.706;2022-09-24T07:17:36;101055.84;;;15.28;100.00
11036;BME280;5571;48.110;-1.706;2022-09-24T07:20:03;101055.63;;;15.31;100.00
11036;BME280;5571;48.110;-1.706;2022-09-24T07:22:29;101055.53;;;15.33;100.00
11036;BME280;5571;48.110;-1.706;2022-09-24T07:24:54;101057.13;;;15.35;100.00
11036;BME280;5571;48.110;-1.706;2022-09-24T07:27:19;101052.47;;;15.39;100.00
11036;BME280;5571;48.110;-1.706;2022-09-24T07:29:48;101051.41;;;15.41;100.00
11036;BME280;5571;48.110;-1.706;2022-09-24T07:32:15;101055.75;;;15.42;100.00
11036;BME280;5571;48.110;-1.706;2022-09-24T07:34:41;101054.66;;;15.45;100.00
11036;BME280;5571;48.110;-1.706;2022-09-24T07:37:06;101063.38;;;15.47;100.00
11036;BME280;5571;48.110;-1.706;2022-09-24T07:39:32;101061.38;;;15.50;100.00
11036;BME280;5571;48.110;-1.706;2022-09-24T07:41:58;101066.28;;;15.56;100.00
11036;BME280;5571;48.110;-1.706;2022-09-24T07:44:25;101067.97;;;15.57;100.00
11036;BME280;5571;48.110;-1.706;2022-09-24T07:46:51;101073.38;;;15.56;100.00
11036;BME280;5571;48.110;-1.706;2022-09-24T07:49:17;101075.94;;;15.57;100.00
11036;BME280;5571;48.110;-1.706;2022-09-24T07:51:43;101080.38;;;15.57;100.00
11036;BME280;5571;48.110;-1.706;2022-09-24T07:54:09;101078.75;;;15.54;100.00
11036;BME280;5571;48.110;-1.706;2022-09-24T07:56:35;101072.63;;;15.54;100.00
11036;BME280;5571;48.110;-1.706;2022-09-24T07:59:00;101081.41;;;15.54;100.00
11036;BME280;5571;48.110;-1.706;2022-09-24T08:01:26;101083.03;;;15.57;100.00
11036;BME280;5571;48.110;-1.706;2022-09-24T08:03:52;101083.03;;;15.57;100.00
11036;BME280;5571;48.110;-1.706;2022-09-24T08:06:20;101090.00;;;15.58;100.00
11036;BME280;5571;48.110;-1.706;2022-09-24T08:08:50;101089.56;;;15.64;100.00
11036;BME280;5571;48.110;-1.706;2022-09-24T08:11:17;101094.16;;;15.75;100.00
11036;BME280;5571;48.110;-1.706;2022-09-24T08:13:43;101086.41;;;15.84;100.00
11036;BME280;5571;48.110;-1.706;2022-09-24T08:16:12;101096.38;;;15.93;100.00
11036;BME280;5571;48.110;-1.706;2022-09-24T08:18:38;101093.78;;;16.04;100.00
11036;BME280;5571;48.110;-1.706;2022-09-24T08:21:08;101096.63;;;16.14;100.00
11036;BME280;5571;48.110;-1.706;2022-09-24T08:23:36;101100.09;;;16.27;100.00
11036;BME280;5571;48.110;-1.706;2022-09-24T08:26:02;101096.38;;;16.42;100.00
11036;BME280;5571;48.110;-1.706;2022-09-24T08:28:28;101095.38;;;16.56;100.00
11036;BME280;5571;48.110;-1.706;2022-09-24T08:31:01;101094.25;;;16.71;100.00
11036;BME280;5571;48.110;-1.706;2022-09-24T08:33:28;101100.34;;;16.84;100.00
11036;BME280;5571;48.110;-1.706;2022-09-24T08:35:54;101109.44;;;16.93;100.00
11036;BME280;5571;48.110;-1.706;2022-09-24T08:38:19;101106.84;;;17.04;100.00
11036;BME280;5571;48.110;-1.706;2022-09-24T08:43:39;101115.59;;;17.17;100.00
11036;BME280;5571;48.110;-1.706;2022-09-24T08:46:15;101123.59;;;17.28;100.00
11036;BME280;5571;48.110;-1.706;2022-09-24T08:49:01;101126.97;;;17.30;100.00
11036;BME280;5571;48.110;-1.706;2022-09-24T08:51:35;101127.44;;;17.24;100.00
11036;BME280;5571;48.110;-1.706;2022-09-24T08:54:12;101122.47;;;17.20;100.00
11036;BME280;5571;48.110;-1.706;2022-09-24T08:56:41;101129.94;;;17.15;100.00
11036;BME280;5571;48.110;-1.706;2022-09-24T08:59:22;101134.97;;;17.07;100.00
11036;BME280;5571;48.110;-1.706;2022-09-24T09:02:11;101140.41;;;17.05;100.00
11036;BME280;5571;48.110;-1.706;2022-09-24T09:04:46;101147.41;;;17.06;100.00
11036;BME280;5571;48.110;-1.706;2022-09-24T09:07:20;101144.28;;;17.12;100.00
11036;BME280;5571;48.110;-1.706;2022-09-24T09:09:56;101151.81;;;17.18;100.00
11036;BME280;5571;48.110;-1.706;2022-09-24T09:12:37;101146.44;;;17.31;100.00
11036;BME280;5571;48.110;-1.706;2022-09-24T09:15:20;101148.25;;;17.41;100.00
11036;BME280;5571;48.110;-1.706;2022-09-24T09:17:56;101151.66;;;17.43;100.00
11036;BME280;5571;48.110;-1.706;2022-09-24T09:22:56;101156.72;;;17.46;100.00
11036;BME280;5571;48.110;-1.706;2022-09-24T09:25:26;101161.09;;;17.48;100.00
11036;BME280;5571;48.110;-1.706;2022-09-24T09:28:06;101157.56;;;17.47;100.00
11036;BME280;5571;48.110;-1.706;2022-09-24T09:38:41;101156.03;;;18.02;100.00
11036;BME280;5571;48.110;-1.706;2022-09-24T09:43:46;101163.28;;;18.22;100.00
11036;BME280;5571;48.110;-1.706;2022-09-24T09:46:32;101161.84;;;18.29;100.00
11036;BME280;5571;48.110;-1.706;2022-09-24T09:49:05;101163.41;;;18.31;100.00
11036;BME280;5571;48.110;-1.706;2022-09-24T09:51:37;101155.91;;;18.37;100.00
11036;BME280;5571;48.110;-1.706;2022-09-24T09:54:03;101157.34;;;18.41;100.00
11036;BME280;5571;48.110;-1.706;2022-09-24T09:56:30;101162.47;;;18.55;100.00
11036;BME280;5571;48.110;-1.706;2022-09-24T10:01:38;101164.28;;;18.65;99.20
11036;BME280;5571;48.110;-1.706;2022-09-24T10:04:38;101158.31;;;18.51;96.81
11036;BME280;5571;48.110;-1.706;2022-09-24T10:07:05;101157.94;;;18.44;95.84
11036;BME280;5571;48.110;-1.706;2022-09-24T10:09:31;101159.31;;;18.39;95.33
11036;BME280;5571;48.110;-1.706;2022-09-24T10:14:41;101157.13;;;18.21;94.98
11036;BME280;5571;48.110;-1.706;2022-09-24T10:17:16;101156.88;;;18.02;95.66
11036;BME280;5571;48.110;-1.706;2022-09-24T10:19:42;101160.63;;;18.00;95.65
11036;BME280;5571;48.110;-1.706;2022-09-24T10:22:19;101155.06;;;18.14;96.14
11036;BME280;5571;48.110;-1.706;2022-09-24T10:24:47;101165.94;;;18.44;94.62
11036;BME280;5571;48.110;-1.706;2022-09-24T10:27:19;101163.16;;;18.79;92.77
11036;BME280;5571;48.110;-1.706;2022-09-24T10:29:51;101149.31;;;18.96;88.74
11036;BME280;5571;48.110;-1.706;2022-09-24T10:32:38;101156.09;;;19.21;86.75
11036;BME280;5571;48.110;-1.706;2022-09-24T10:35:18;101153.25;;;19.34;85.24
11036;BME280;5571;48.110;-1.706;2022-09-24T10:37:58;101146.09;;;19.45;82.83
11036;BME280;5571;48.110;-1.706;2022-09-24T10:40:27;101147.00;;;19.55;82.70
11036;BME280;5571;48.110;-1.706;2022-09-24T10:45:27;101147.91;;;19.86;82.09
11036;BME280;5571;48.110;-1.706;2022-09-24T10:50:42;101151.13;;;20.10;78.74
11036;BME280;5571;48.110;-1.706;2022-09-24T10:53:20;101154.41;;;20.24;77.67
11036;BME280;5571;48.110;-1.706;2022-09-24T10:58:51;101153.91;;;20.79;72.13
11036;BME280;5571;48.110;-1.706;2022-09-24T11:01:32;101144.09;;;21.09;68.93
11036;BME280;5571;48.110;-1.706;2022-09-24T11:04:28;101154.28;;;21.24;66.46
11036;BME280;5571;48.110;-1.706;2022-09-24T11:09:53;101158.84;;;21.70;67.19
11036;BME280;5571;48.110;-1.706;2022-09-24T11:15:04;101143.31;;;21.83;60.35
11036;BME280;5571;48.110;-1.706;2022-09-24T11:17:53;101156.34;;;21.59;60.08
11036;BME280;5571;48.110;-1.706;2022-09-24T11:20:38;101150.31;;;21.38;59.20
11036;BME280;5571;48.110;-1.706;2022-09-24T11:23:40;101151.31;;;21.27;61.24
11036;BME280;5571;48.110;-1.706;2022-09-24T11:26:28;101148.75;;;21.45;61.84
11036;BME280;5571;48.110;-1.706;2022-09-24T11:31:40;101149.72;;;21.73;60.58
11036;BME280;5571;48.110;-1.706;2022-09-24T11:50:19;101147.81;;;22.39;55.09
11036;BME280;5571;48.110;-1.706;2022-09-24T11:55:43;101146.47;;;22.25;54.32
11036;BME280;5571;48.110;-1.706;2022-09-24T11:58:27;101139.41;;;22.24;54.71
11036;BME280;5571;48.110;-1.706;2022-09-24T12:00:57;101145.94;;;22.22;53.87
11036;BME280;5571;48.110;-1.706;2022-09-24T12:07:05;101136.66;;;22.71;51.28
11036;BME280;5571;48.110;-1.706;2022-09-24T12:09:44;101142.44;;;22.76;47.45
11036;BME280;5571;48.110;-1.706;2022-09-24T12:12:19;101133.69;;;22.64;46.90
11036;BME280;5571;48.110;-1.706;2022-09-24T12:14:54;101135.41;;;22.65;46.81
11036;BME280;5571;48.110;-1.706;2022-09-24T12:17:41;101140.22;;;22.62;46.37
11036;BME280;5571;48.110;-1.706;2022-09-24T12:20:20;101140.66;;;22.57;47.79
11036;BME280;5571;48.110;-1.706;2022-09-24T12:22:50;101126.88;;;22.52;47.62
11036;BME280;5571;48.110;-1.706;2022-09-24T12:25:20;101127.94;;;22.59;47.07
11036;BME280;5571;48.110;-1.706;2022-09-24T12:27:46;101131.41;;;22.79;46.93
11036;BME280;5571;48.110;-1.706;2022-09-24T12:30:36;101134.41;;;22.94;46.25
11036;BME280;5571;48.110;-1.706;2022-09-24T12:33:38;101127.22;;;23.12;46.99
11036;BME280;5571;48.110;-1.706;2022-09-24T12:36:21;101128.84;;;23.31;45.85
11036;BME280;5571;48.110;-1.706;2022-09-24T12:38:53;101124.97;;;23.07;45.95
11036;BME280;5571;48.110;-1.706;2022-09-24T12:41:35;101122.44;;;22.88;46.17
11036;BME280;5571;48.110;-1.706;2022-09-24T12:49:03;101117.75;;;22.72;47.50
11036;BME280;5571;48.110;-1.706;2022-09-24T12:51:37;101120.59;;;22.89;48.00
11036;BME280;5571;48.110;-1.706;2022-09-24T12:54:23;101116.03;;;23.16;48.01
11036;BME280;5571;48.110;-1.706;2022-09-24T12:57:14;101112.63;;;23.32;47.59
11036;BME280;5571;48.110;-1.706;2022-09-24T13:03:37;101107.69;;;23.63;46.39
11036;BME280;5571;48.110;-1.706;2022-09-24T13:06:34;101108.19;;;23.23;45.35
11036;BME280;5571;48.110;-1.706;2022-09-24T13:09:02;101107.72;;;22.74;46.97
11036;BME280;5571;48.110;-1.706;2022-09-24T13:11:32;101104.69;;;22.60;47.69
11036;BME280;5571;48.110;-1.706;2022-09-24T13:16:42;101111.88;;;22.87;46.18
11036;BME280;5571;48.110;-1.706;2022-09-24T13:21:59;101095.56;;;23.15;46.13
11036;BME280;5571;48.110;-1.706;2022-09-24T13:24:48;101108.63;;;23.36;45.76
11036;BME280;5571;48.110;-1.706;2022-09-24T13:29:46;101114.22;;;23.60;44.44
11036;BME280;5571;48.110;-1.706;2022-09-24T13:32:17;101127.25;;;23.38;44.77
11036;BME280;5571;48.110;-1.706;2022-09-24T13:34:44;101115.91;;;23.08;45.51
11036;BME280;5571;48.110;-1.706;2022-09-24T13:37:21;101117.00;;;22.98;46.79
11036;BME280;5571;48.110;-1.706;2022-09-24T13:39:52;101116.47;;;22.77;46.89
11036;BME280;5571;48.110;-1.706;2022-09-24T13:44:53;101113.09;;;21.73;49.89
11036;BME280;5571;48.110;-1.706;2022-09-24T13:47:42;101111.34;;;21.26;53.61
11036;BME280;5571;48.110;-1.706;2022-09-24T13:53:00;101109.75;;;20.75;56.48
11036;BME280;5571;48.110;-1.706;2022-09-24T13:55:32;101112.94;;;20.60;57.12
11036;BME280;5571;48.110;-1.706;2022-09-24T13:57:58;101113.50;;;20.63;57.88
11036;BME280;5571;48.110;-1.706;2022-09-24T14:00:25;101110.03;;;20.91;58.11
11036;BME280;5571;48.110;-1.706;2022-09-24T14:03:02;101115.53;;;21.48;55.22
11036;BME280;5571;48.110;-1.706;2022-09-24T14:05:34;101125.19;;;21.87;49.46
11036;BME280;5571;48.110;-1.706;2022-09-24T14:08:10;101117.06;;;22.16;47.04
11036;BME280;5571;48.110;-1.706;2022-09-24T14:10:36;101116.34;;;22.41;46.69
11036;BME280;5571;48.110;-1.706;2022-09-24T14:15:33;101106.75;;;22.93;46.90
11036;BME280;5571;48.110;-1.706;2022-09-24T14:18:00;101116.69;;;23.01;47.94
11036;BME280;5571;48.110;-1.706;2022-09-24T14:20:32;101108.28;;;22.96;47.13
11036;BME280;5571;48.110;-1.706;2022-09-24T14:23:00;101107.13;;;22.98;47.13
11036;BME280;5571;48.110;-1.706;2022-09-24T14:25:28;101106.38;;;22.61;46.94
11036;BME280;5571;48.110;-1.706;2022-09-24T14:27:54;101108.88;;;22.17;48.68
11036;BME280;5571;48.110;-1.706;2022-09-24T14:30:24;101109.28;;;21.76;50.83
11036;BME280;5571;48.110;-1.706;2022-09-24T14:32:56;101109.94;;;21.41;53.29
11036;BME280;5571;48.110;-1.706;2022-09-24T14:38:03;101105.63;;;21.77;55.05